Time;durP1;ratioP1;P1;durP2;ratioP2;P2;SDS_P1;SDS_P2;PMS_P1;PMS_P2;Temp;Humidity;BMP_temperature;BMP_pressure;BME280_temperature;BME280_humidity;BME280_pressure;Samples;Min_cycle;Max_cycle;Signal;HPM_P1;HPM_P2
2021/05/26 00:00:46;;;;;;;;;;;;;;;21.13;54.24;100851.50;2104111;28;3911;-29
2021/05/26 00:01:47;;;;;;;;;;;;;;;21.12;54.21;100850.69;2105493;28;4250;-28
2021/05/26 00:02:48;;;;;;;;;;;;;;;21.13;53.98;100851.50;2104987;28;4027;-31
2021/05/26 00:03:50;;;;;;;;;;;;;;;21.13;54.32;100845.81;2104432;28;4076;-31
2021/05/26 00:04:52;;;;;;;;;;;;;;;21.12;54.20;100842.16;2105046;28;3911;-33
2021/05/26 00:05:53;;;;;;;;;;;;;;;21.12;54.15;100842.16;2105427;28;3858;-31
2021/05/26 00:06:54;;;;;;;;;;;;;;;21.12;54.21;100835.63;2104294;28;4039;-30
2021/05/26 00:07:55;;;;;;;;;;;;;;;21.12;54.20;100835.63;2105268;28;4213;-30
2021/05/26 00:08:57;;;;;;;;;;;;;;;21.12;54.23;100835.63;2104576;28;4024;-31
2021/05/26 00:09:58;;;;;;;;;;;;;;;21.12;54.27;100841.31;2106222;28;4050;-31
2021/05/26 00:10:59;;;;;;;;;;;;;;;21.12;54.16;100839.31;2105161;28;4047;-31
2021/05/26 00:12:00;;;;;;;;;;;;;;;21.12;54.32;100838.47;2105025;28;3975;-30
2021/05/26 00:13:02;;;;;;;;;;;;;;;21.11;54.24;100837.63;2104768;28;3877;-32
2021/05/26 00:14:03;;;;;;;;;;;;;;;21.11;54.13;100843.31;2104286;28;3880;-33
2021/05/26 00:15:04;;;;;;;;;;;;;;;21.11;54.22;100837.63;2103059;28;3908;-29
2021/05/26 00:16:06;;;;;;;;;;;;;;;21.11;54.19;100840.47;2103523;28;3898;-30
2021/05/26 00:17:07;;;;;;;;;;;;;;;21.11;54.34;100836.81;2104196;28;4080;-32
2021/05/26 00:18:08;;;;;;;;;;;;;;;21.11;54.10;100840.47;2105200;28;4016;-29
2021/05/26 00:19:10;;;;;;;;;;;;;;;21.10;54.09;100835.16;2104763;28;3912;-31
2021/05/26 00:20:11;;;;;;;;;;;;;;;21.10;54.06;100829.47;2104370;28;4011;-29
2021/05/26 00:21:12;;;;;;;;;;;;;;;21.11;54.17;100828.25;2105058;28;4058;-33
2021/05/26 00:22:14;;;;;;;;;;;;;;;21.11;54.21;100825.41;2104263;28;3982;-31
2021/05/26 00:23:15;;;;;;;;;;;;;;;21.10;54.19;100835.16;2104905;28;4195;-29
2021/05/26 00:24:16;;;;;;;;;;;;;;;21.10;54.15;100824.59;2104120;28;4016;-31
2021/05/26 00:25:17;;;;;;;;;;;;;;;21.10;54.30;100829.47;2105564;28;3868;-29
2021/05/26 00:26:19;;;;;;;;;;;;;;;21.10;54.27;100829.47;2104015;28;4031;-29
2021/05/26 00:27:20;;;;;;;;;;;;;;;21.09;54.25;100831.47;2104395;28;4006;-33
2021/05/26 00:28:21;;;;;;;;;;;;;;;21.09;54.03;100828.63;2105436;28;3896;-31
2021/05/26 00:29:22;;;;;;;;;;;;;;;21.10;54.22;100823.78;2105299;28;3820;-31
2021/05/26 00:30:24;;;;;;;;;;;;;;;21.08;54.17;100821.25;2105065;28;3853;-32
2021/05/26 00:31:25;;;;;;;;;;;;;;;21.09;54.08;100825.78;2104062;28;3839;-29
2021/05/26 00:32:26;;;;;;;;;;;;;;;21.09;54.38;100816.44;2095378;28;3985;-32
2021/05/26 00:33:28;;;;;;;;;;;;;;;21.08;54.16;100818.41;2104464;28;3964;-32
2021/05/26 00:34:29;;;;;;;;;;;;;;;21.09;54.18;100822.13;2104362;28;3977;-29
2021/05/26 00:35:30;;;;;;;;;;;;;;;21.09;54.19;100813.59;2104941;28;3960;-30
2021/05/26 00:36:31;;;;;;;;;;;;;;;21.08;54.19;100818.41;2105707;28;3971;-32
2021/05/26 00:37:33;;;;;;;;;;;;;;;21.09;54.23;100811.56;2103528;28;4854;-34
2021/05/26 00:38:34;;;;;;;;;;;;;;;21.08;54.19;100820.44;2104755;28;4047;-33
2021/05/26 00:39:35;;;;;;;;;;;;;;;21.09;54.12;100816.44;2104024;28;3880;-30
2021/05/26 00:40:36;;;;;;;;;;;;;;;21.08;54.24;100815.56;2102506;28;4037;-31
2021/05/26 00:41:37;;;;;;;;;;;;;;;21.08;54.27;100814.75;2104180;28;4088;-31
2021/05/26 00:42:39;;;;;;;;;;;;;;;21.07;54.25;100816.78;2104813;28;4081;-34
2021/05/26 00:43:40;;;;;;;;;;;;;;;21.08;54.09;100820.44;2103093;28;4046;-31
2021/05/26 00:44:41;;;;;;;;;;;;;;;21.08;54.03;100817.59;2103558;28;4029;-29
2021/05/26 00:45:43;;;;;;;;;;;;;;;21.08;54.19;100811.91;2105668;28;4094;-28
2021/05/26 00:46:44;;;;;;;;;;;;;;;21.07;54.26;100813.94;2104727;28;4180;-32
2021/05/26 00:47:45;;;;;;;;;;;;;;;21.08;54.27;100809.06;2103732;28;4042;-30
2021/05/26 00:48:46;;;;;;;;;;;;;;;21.06;54.30;100817.97;2104383;28;3929;-30
2021/05/26 00:49:48;;;;;;;;;;;;;;;21.07;54.22;100818.78;2104021;28;4159;-32
2021/05/26 00:50:49;;;;;;;;;;;;;;;21.08;54.08;100814.75;2103527;28;4076;-31
2021/05/26 00:51:50;;;;;;;;;;;;;;;21.07;54.13;100816.78;2105112;28;4068;-31
2021/05/26 00:52:54;;;;;;;;;;;;;;;21.07;54.34;100815.94;2104122;28;3884;-29
2021/05/26 00:53:55;;;;;;;;;;;;;;;21.07;54.29;100810.25;2104391;28;4742;-29
2021/05/26 00:54:56;;;;;;;;;;;;;;;21.06;54.14;100803.75;2103889;28;3905;-31
2021/05/26 00:55:58;;;;;;;;;;;;;;;21.06;54.29;100809.44;2103274;28;4220;-31
2021/05/26 00:57:00;;;;;;;;;;;;;;;21.06;54.31;100805.72;2104938;28;4095;-31
2021/05/26 00:58:02;;;;;;;;;;;;;;;21.07;54.15;100810.25;2103872;28;4165;-29
2021/05/26 00:59:03;;;;;;;;;;;;;;;21.07;54.28;100811.09;2104085;28;4044;-33
2021/05/26 01:00:04;;;;;;;;;;;;;;;21.05;54.13;100802.06;2104314;28;4567;-32
2021/05/26 01:01:05;;;;;;;;;;;;;;;21.07;54.18;100815.94;2103867;28;4033;-32
2021/05/26 01:02:07;;;;;;;;;;;;;;;21.07;54.38;100813.09;2102157;28;4026;-32
2021/05/26 01:03:08;;;;;;;;;;;;;;;21.06;54.24;100814.25;2103579;28;4036;-33
2021/05/26 01:04:09;;;;;;;;;;;;;;;21.07;54.15;100815.94;2104021;28;3874;-31
2021/05/26 01:05:10;;;;;;;;;;;;;;;21.06;54.16;100811.41;2104055;28;4068;-32
2021/05/26 01:06:12;;;;;;;;;;;;;;;21.06;54.19;100803.75;2103281;28;4067;-34
2021/05/26 01:07:13;;;;;;;;;;;;;;;21.05;54.20;100816.28;2104000;28;3872;-30
2021/05/26 01:08:14;;;;;;;;;;;;;;;21.06;54.35;100812.28;2103348;28;4057;-32
2021/05/26 01:09:15;;;;;;;;;;;;;;;21.06;54.34;100811.41;2103555;28;4191;-30
2021/05/26 01:10:17;;;;;;;;;;;;;;;21.05;54.34;100816.28;2103220;28;3889;-36
2021/05/26 01:11:18;;;;;;;;;;;;;;;21.05;54.23;100815.47;2102414;28;4084;-34
2021/05/26 01:12:20;;;;;;;;;;;;;;;21.05;54.34;100812.63;2105243;28;4026;-31
2021/05/26 01:13:24;;;;;;;;;;;;;;;21.05;54.25;100815.47;2104472;28;3908;-29
2021/05/26 01:14:25;;;;;;;;;;;;;;;21.05;54.20;100810.59;2103989;28;4004;-29
2021/05/26 01:15:26;;;;;;;;;;;;;;;21.05;54.33;100812.63;2097647;28;4052;-33
2021/05/26 01:16:28;;;;;;;;;;;;;;;21.05;54.37;100816.28;2104711;28;3973;-31
2021/05/26 01:17:29;;;;;;;;;;;;;;;21.05;54.38;100810.59;2104273;28;3992;-34
2021/05/26 01:18:31;;;;;;;;;;;;;;;21.05;54.36;100816.28;2102730;28;4061;-30
2021/05/26 01:19:32;;;;;;;;;;;;;;;21.04;54.19;100814.63;2104031;28;4678;-30
2021/05/26 01:20:33;;;;;;;;;;;;;;;21.04;54.40;100806.09;2104580;28;3854;-29
2021/05/26 01:21:34;;;;;;;;;;;;;;;21.04;54.27;100794.72;2104049;28;3873;-32
2021/05/26 01:22:36;;;;;;;;;;;;;;;21.04;54.43;100808.94;2104510;28;4062;-29
2021/05/26 01:23:38;;;;;;;;;;;;;;;21.05;54.37;100807.75;2103955;28;4106;-32
2021/05/26 01:24:39;;;;;;;;;;;;;;;21.05;54.33;100806.94;2103895;28;4113;-29
2021/05/26 01:25:40;;;;;;;;;;;;;;;21.05;54.24;100812.63;2104506;28;3877;-29
2021/05/26 01:26:41;;;;;;;;;;;;;;;21.04;54.38;100808.13;2101049;28;4042;-28
2021/05/26 01:27:43;;;;;;;;;;;;;;;21.04;54.28;100808.94;2101725;28;3937;-31
2021/05/26 01:28:44;;;;;;;;;;;;;;;21.04;54.34;100808.13;2101545;28;4055;-36
2021/05/26 01:29:46;;;;;;;;;;;;;;;21.04;54.38;100802.44;2100732;28;4003;-29
2021/05/26 01:30:47;;;;;;;;;;;;;;;21.04;54.26;100805.28;2101611;28;3907;-29
2021/05/26 01:31:48;;;;;;;;;;;;;;;21.04;54.32;100808.13;2102787;28;4072;-34
2021/05/26 01:32:51;;;;;;;;;;;;;;;21.03;54.29;100795.88;2103404;28;4082;-36
2021/05/26 01:33:52;;;;;;;;;;;;;;;21.03;54.43;100800.75;2102617;28;3882;-33
2021/05/26 01:34:53;;;;;;;;;;;;;;;21.04;54.48;100802.44;2103568;28;4040;-32
2021/05/26 01:35:54;;;;;;;;;;;;;;;21.03;54.42;100801.59;2103470;28;4057;-32
2021/05/26 01:36:56;;;;;;;;;;;;;;;21.03;54.50;100801.59;2105072;28;3878;-34
2021/05/26 01:37:57;;;;;;;;;;;;;;;21.03;54.48;100807.28;2103881;28;4118;-33
2021/05/26 01:38:58;;;;;;;;;;;;;;;21.03;54.48;100803.59;2103957;28;4052;-34
2021/05/26 01:39:59;;;;;;;;;;;;;;;21.03;54.32;100806.44;2104482;28;4063;-31
2021/05/26 01:41:00;;;;;;;;;;;;;;;21.03;54.37;100800.75;2105227;28;4064;-36
2021/05/26 01:42:02;;;;;;;;;;;;;;;21.04;54.46;100802.44;2104034;28;4099;-33
2021/05/26 01:43:03;;;;;;;;;;;;;;;21.03;54.35;100797.91;2104001;28;3910;-33
2021/05/26 01:44:04;;;;;;;;;;;;;;;21.03;54.50;100800.75;2104941;28;4005;-32
2021/05/26 01:45:06;;;;;;;;;;;;;;;21.03;54.26;100812.97;2104233;28;3924;-35
2021/05/26 01:46:07;;;;;;;;;;;;;;;21.02;54.42;100799.94;2103554;28;4168;-31
2021/05/26 01:47:08;;;;;;;;;;;;;;;21.03;54.41;100795.88;2104184;28;4049;-34
2021/05/26 01:48:09;;;;;;;;;;;;;;;21.02;54.58;100799.09;2103634;28;3860;-37
2021/05/26 01:49:11;;;;;;;;;;;;;;;21.03;54.64;100803.59;2102568;28;3989;-33
2021/05/26 01:50:21;;;;;;;;;;;;;;;21.02;54.46;100802.78;2104454;28;4094;-30
2021/05/26 01:51:23;;;;;;;;;;;;;;;21.03;54.46;100792.22;2104119;28;4814;-33
2021/05/26 01:52:24;;;;;;;;;;;;;;;21.03;54.54;100801.59;2104332;28;3828;-34
2021/05/26 01:53:27;;;;;;;;;;;;;;;21.02;54.56;100799.09;2103789;28;3815;-34
2021/05/26 01:54:28;;;;;;;;;;;;;;;21.01;54.64;100798.28;2103024;28;3978;-33
2021/05/26 01:55:29;;;;;;;;;;;;;;;21.03;54.40;100797.91;2102905;28;3961;-33
2021/05/26 01:56:31;;;;;;;;;;;;;;;21.02;54.46;100796.25;2103420;28;4200;-31
2021/05/26 01:57:32;;;;;;;;;;;;;;;21.02;54.54;100797.09;2103410;28;5215;-33
2021/05/26 01:58:34;;;;;;;;;;;;;;;21.02;54.50;100799.09;2103447;28;3903;-33
2021/05/26 01:59:36;;;;;;;;;;;;;;;21.01;54.56;100792.59;2104413;28;3884;-36
2021/05/26 02:00:37;;;;;;;;;;;;;;;21.02;54.58;100799.94;2103666;28;4163;-33
2021/05/26 02:01:38;;;;;;;;;;;;;;;21.02;54.52;100791.41;2104727;28;3887;-33
2021/05/26 02:02:39;;;;;;;;;;;;;;;21.02;54.66;100793.41;2105428;28;5012;-32
2021/05/26 02:03:41;;;;;;;;;;;;;;;21.01;54.87;100798.28;2106697;28;4055;-32
2021/05/26 02:04:42;;;;;;;;;;;;;;;21.01;54.68;100789.75;2096330;28;4183;-31
2021/05/26 02:05:43;;;;;;;;;;;;;;;21.02;54.67;100796.25;2097122;28;3880;-31
2021/05/26 02:06:44;;;;;;;;;;;;;;;21.01;54.69;100786.09;2105951;28;4078;-32
2021/05/26 02:07:47;;;;;;;;;;;;;;;21.01;54.51;100798.28;2105765;28;3921;-33
2021/05/26 02:08:48;;;;;;;;;;;;;;;21.02;54.58;100793.41;2106411;28;3882;-32
2021/05/26 02:09:49;;;;;;;;;;;;;;;21.01;54.58;100792.59;2105337;28;4053;-32
2021/05/26 02:12:23;;;;;;;;;;;;;;;21.02;54.64;100793.41;2105925;28;3871;-36
2021/05/26 02:13:24;;;;;;;;;;;;;;;21.02;54.53;100793.41;2105374;28;4013;-31
2021/05/26 02:14:25;;;;;;;;;;;;;;;21.01;54.62;100788.94;2106284;28;3984;-32
2021/05/26 02:15:26;;;;;;;;;;;;;;;21.01;54.67;100792.59;2098088;28;3980;-30
2021/05/26 02:16:27;;;;;;;;;;;;;;;21.02;54.58;100799.09;2105454;28;3857;-34
2021/05/26 02:17:29;;;;;;;;;;;;;;;21.01;54.64;100788.94;2105797;28;4021;-34
2021/05/26 02:18:30;;;;;;;;;;;;;;;21.01;54.61;100788.94;2105652;28;3977;-32
2021/05/26 02:19:31;;;;;;;;;;;;;;;21.01;54.68;100788.94;2106097;28;3977;-34
2021/05/26 02:20:32;;;;;;;;;;;;;;;21.01;54.54;100786.09;2104643;28;5947;-33
2021/05/26 02:21:34;;;;;;;;;;;;;;;21.01;54.48;100783.25;2106193;28;3955;-29
2021/05/26 02:22:35;;;;;;;;;;;;;;;21.01;54.64;100784.06;2104309;28;3873;-30
2021/05/26 02:23:37;;;;;;;;;;;;;;;21.01;54.79;100788.94;2105176;28;4035;-30
2021/05/26 02:24:38;;;;;;;;;;;;;;;21.01;54.67;100786.09;2105092;28;4055;-31
2021/05/26 02:25:41;;;;;;;;;;;;;;;20.99;54.65;100786.41;2106021;28;3875;-31
2021/05/26 02:26:42;;;;;;;;;;;;;;;21.01;54.59;100783.25;2105546;28;4026;-30
2021/05/26 02:27:43;;;;;;;;;;;;;;;21.00;54.65;100784.41;2103632;28;4070;-29
2021/05/26 02:28:45;;;;;;;;;;;;;;;21.00;54.48;100787.25;2106049;28;4026;-32
2021/05/26 02:29:46;;;;;;;;;;;;;;;20.99;54.63;100789.28;2106597;28;4017;-28
2021/05/26 02:30:47;;;;;;;;;;;;;;;21.00;54.67;100785.22;2104918;28;4129;-33
2021/05/26 02:31:48;;;;;;;;;;;;;;;21.00;54.53;100781.56;2105996;28;3890;-33
2021/05/26 02:32:50;;;;;;;;;;;;;;;21.00;54.55;100784.41;2104589;28;4071;-32
2021/05/26 02:33:51;;;;;;;;;;;;;;;21.00;54.54;100781.56;2105813;28;4229;-32
2021/05/26 02:34:52;;;;;;;;;;;;;;;21.00;54.51;100784.41;2106316;28;3866;-31
2021/05/26 02:35:53;;;;;;;;;;;;;;;21.00;54.61;100792.94;2104211;28;4059;-32
2021/05/26 02:36:54;;;;;;;;;;;;;;;21.00;54.60;100787.25;2105533;28;4063;-32
2021/05/26 02:37:56;;;;;;;;;;;;;;;20.99;54.70;100783.56;2106181;28;4027;-33
2021/05/26 02:38:57;;;;;;;;;;;;;;;20.99;54.60;100780.72;2105291;28;3872;-31
2021/05/26 02:39:58;;;;;;;;;;;;;;;20.99;54.70;100783.56;2106433;28;4065;-29
2021/05/26 02:40:59;;;;;;;;;;;;;;;20.99;54.51;100786.41;2104531;28;4089;-29
2021/05/26 02:42:01;;;;;;;;;;;;;;;21.00;54.62;100775.88;2104500;28;4082;-29
2021/05/26 02:43:02;;;;;;;;;;;;;;;21.00;54.65;100778.72;2105687;28;4081;-31
2021/05/26 02:44:04;;;;;;;;;;;;;;;20.99;54.60;100794.13;2105464;28;3892;-29
2021/05/26 02:45:05;;;;;;;;;;;;;;;21.00;54.72;100779.53;2105240;28;3993;-31
2021/05/26 02:46:06;;;;;;;;;;;;;;;21.00;54.78;100788.06;2105500;28;3762;-31
2021/05/26 02:47:07;;;;;;;;;;;;;;;20.99;54.82;100788.44;2106055;28;3930;-28
2021/05/26 02:48:09;;;;;;;;;;;;;;;20.98;54.66;100784.78;2105910;28;4104;-30
2021/05/26 02:49:10;;;;;;;;;;;;;;;21.00;54.57;100784.41;2105283;28;4045;-31
2021/05/26 02:50:16;;;;;;;;;;;;;;;20.99;54.76;100782.75;2104640;28;4067;-29
2021/05/26 02:51:18;;;;;;;;;;;;;;;20.98;54.80;100784.78;2104995;28;4019;-28
2021/05/26 02:52:19;;;;;;;;;;;;;;;21.00;54.79;100790.09;2105592;28;4090;-29
2021/05/26 02:53:20;;;;;;;;;;;;;;;20.99;54.75;100777.88;2104615;28;4018;-28
2021/05/26 02:54:22;;;;;;;;;;;;;;;20.99;54.72;100779.91;2105164;28;3891;-28
2021/05/26 02:55:23;;;;;;;;;;;;;;;20.99;54.85;100777.06;2105939;28;3820;-33
2021/05/26 02:56:25;;;;;;;;;;;;;;;21.00;54.68;100781.56;2105241;28;3932;-30
2021/05/26 02:57:26;;;;;;;;;;;;;;;21.00;54.75;100784.41;2105349;28;3870;-31
2021/05/26 02:58:27;;;;;;;;;;;;;;;21.00;54.96;100784.41;2105626;28;3990;-30
2021/05/26 02:59:29;;;;;;;;;;;;;;;20.99;54.88;100786.41;2105575;28;3794;-28
2021/05/26 03:00:30;;;;;;;;;;;;;;;20.99;54.80;100786.41;2105176;28;6060;-32
2021/05/26 03:01:31;;;;;;;;;;;;;;;20.99;54.86;100789.28;2105525;28;4073;-29
2021/05/26 03:02:32;;;;;;;;;;;;;;;21.00;54.94;100790.09;2104845;28;4882;-28
2021/05/26 03:03:34;;;;;;;;;;;;;;;21.00;55.03;100778.72;2104995;28;3906;-31
2021/05/26 03:04:35;;;;;;;;;;;;;;;20.99;54.87;100783.56;2104897;28;4074;-30
2021/05/26 03:05:36;;;;;;;;;;;;;;;20.99;54.86;100789.28;2105951;28;4025;-32
2021/05/26 03:06:37;;;;;;;;;;;;;;;20.99;54.76;100783.56;2104974;28;4428;-29
2021/05/26 03:07:39;;;;;;;;;;;;;;;20.99;55.12;100782.75;2105096;28;4094;-33
2021/05/26 03:08:40;;;;;;;;;;;;;;;21.00;54.95;100795.78;2105806;28;4035;-35
2021/05/26 03:09:41;;;;;;;;;;;;;;;20.99;54.83;100791.28;2106039;28;4048;-30
2021/05/26 03:10:42;;;;;;;;;;;;;;;20.99;54.90;100785.59;2104761;28;3907;-30
2021/05/26 03:11:43;;;;;;;;;;;;;;;20.99;55.08;100786.41;2103497;28;4041;-31
2021/05/26 03:12:45;;;;;;;;;;;;;;;20.99;54.98;100788.44;2105022;28;4048;-29
2021/05/26 03:13:46;;;;;;;;;;;;;;;20.99;54.97;100788.44;2106051;28;4045;-28
2021/05/26 03:14:47;;;;;;;;;;;;;;;20.99;55.16;100788.44;2103848;28;3895;-31
2021/05/26 03:15:48;;;;;;;;;;;;;;;20.99;55.06;100794.97;2105047;28;4187;-29
2021/05/26 03:16:50;;;;;;;;;;;;;;;20.99;54.95;100788.44;2105810;28;4058;-31
2021/05/26 03:17:51;;;;;;;;;;;;;;;20.98;55.02;100793.31;2105344;28;3888;-30
2021/05/26 03:18:52;;;;;;;;;;;;;;;20.99;54.99;100797.81;2106018;28;4247;-29
2021/05/26 03:19:53;;;;;;;;;;;;;;;20.99;55.12;100800.66;2105074;28;3950;-32
2021/05/26 03:20:55;;;;;;;;;;;;;;;20.99;55.16;100792.09;2105658;28;3902;-30
2021/05/26 03:21:56;;;;;;;;;;;;;;;20.99;55.06;100794.13;2104803;28;4355;-28
2021/05/26 03:22:57;;;;;;;;;;;;;;;20.99;54.93;100797.81;2105512;28;4175;-30
2021/05/26 03:23:59;;;;;;;;;;;;;;;20.99;55.04;100796.97;2104073;28;4047;-29
2021/05/26 03:25:01;;;;;;;;;;;;;;;20.99;55.15;100799.81;2103163;28;4074;-28
2021/05/26 03:26:02;;;;;;;;;;;;;;;20.98;55.15;100787.63;2104022;28;4042;-32
2021/05/26 03:27:03;;;;;;;;;;;;;;;20.98;55.02;100793.31;2105860;28;4119;-30
2021/05/26 03:28:04;;;;;;;;;;;;;;;20.99;55.07;100791.28;2104920;28;4063;-31
2021/05/26 03:29:07;;;;;;;;;;;;;;;20.98;55.01;100787.63;2105383;28;4126;-29
2021/05/26 03:30:08;;;;;;;;;;;;;;;20.98;55.11;100792.44;2105756;28;4008;-31
2021/05/26 03:31:09;;;;;;;;;;;;;;;20.98;54.95;100787.63;2105569;28;4786;-30
2021/05/26 03:32:10;;;;;;;;;;;;;;;20.98;54.98;100790.47;2103119;28;4041;-31
2021/05/26 03:33:12;;;;;;;;;;;;;;;20.98;54.94;100792.44;2105317;28;4007;-31
2021/05/26 03:34:13;;;;;;;;;;;;;;;20.98;54.98;100789.59;2095265;28;4066;-29
2021/05/26 03:35:14;;;;;;;;;;;;;;;20.97;55.00;100783.09;2094900;28;4036;-29
2021/05/26 03:36:15;;;;;;;;;;;;;;;20.98;54.99;100781.06;2105489;28;4037;-29
2021/05/26 03:37:17;;;;;;;;;;;;;;;20.97;54.89;100783.09;2102696;28;3855;-32
2021/05/26 03:38:18;;;;;;;;;;;;;;;20.96;54.99;100784.28;2103577;28;4017;-30
2021/05/26 03:39:19;;;;;;;;;;;;;;;20.97;54.96;100783.09;2105424;28;3945;-30
2021/05/26 03:40:20;;;;;;;;;;;;;;;20.97;55.15;100783.09;2105479;28;4082;-28
2021/05/26 03:41:21;;;;;;;;;;;;;;;20.97;55.07;100776.59;2104833;28;3986;-28
2021/05/26 03:42:23;;;;;;;;;;;;;;;20.96;55.09;100774.94;2105095;28;4164;-31
2021/05/26 03:43:24;;;;;;;;;;;;;;;20.97;55.19;100782.28;2103597;28;3875;-30
2021/05/26 03:44:25;;;;;;;;;;;;;;;20.96;55.13;100775.75;2104983;28;3960;-29
2021/05/26 03:45:27;;;;;;;;;;;;;;;20.96;54.92;100769.25;2094611;28;4165;-33
2021/05/26 03:46:28;;;;;;;;;;;;;;;20.97;54.90;100779.44;2095753;28;3984;-34
2021/05/26 03:47:29;;;;;;;;;;;;;;;20.96;54.97;100774.94;2096485;28;4078;-34
2021/05/26 03:48:30;;;;;;;;;;;;;;;20.97;54.96;100779.44;2095734;28;3982;-31
2021/05/26 03:49:32;;;;;;;;;;;;;;;20.96;54.86;100777.78;2104323;28;3931;-30
2021/05/26 03:50:33;;;;;;;;;;;;;;;20.96;54.87;100772.09;2105157;28;4751;-34
2021/05/26 03:51:34;;;;;;;;;;;;;;;20.96;55.01;100772.09;2105226;28;3909;-30
2021/05/26 03:52:35;;;;;;;;;;;;;;;20.96;55.05;100778.59;2105719;28;3893;-34
2021/05/26 03:53:37;;;;;;;;;;;;;;;20.95;54.85;100776.94;2105684;28;3842;-30
2021/05/26 03:54:38;;;;;;;;;;;;;;;20.96;54.88;100783.47;2105133;28;4115;-30
2021/05/26 03:55:40;;;;;;;;;;;;;;;20.95;54.84;100785.50;2105278;28;4083;-30
2021/05/26 03:56:42;;;;;;;;;;;;;;;20.95;54.94;100773.25;2104789;28;3881;-30
2021/05/26 03:57:43;;;;;;;;;;;;;;;20.95;54.84;100776.09;2102466;28;3887;-27
2021/05/26 03:58:45;;;;;;;;;;;;;;;20.95;54.75;100776.94;2104036;28;4045;-28
2021/05/26 03:59:47;;;;;;;;;;;;;;;20.96;54.84;100772.91;2104544;28;4102;-32
2021/05/26 04:00:48;;;;;;;;;;;;;;;20.95;54.74;100776.94;2104332;28;4070;-30
2021/05/26 04:01:49;;;;;;;;;;;;;;;20.95;54.82;100774.09;2104406;28;4048;-32
2021/05/26 04:02:50;;;;;;;;;;;;;;;20.95;54.80;100776.09;2104976;28;4160;-28
2021/05/26 04:03:54;;;;;;;;;;;;;;;20.96;54.83;100781.44;2104132;28;4147;-32
2021/05/26 04:04:56;;;;;;;;;;;;;;;20.96;54.87;100777.78;2104696;28;3897;-33
2021/05/26 04:05:57;;;;;;;;;;;;;;;20.96;54.84;100777.78;2104807;28;4043;-33
2021/05/26 04:06:58;;;;;;;;;;;;;;;20.95;54.84;100776.09;2105487;28;4063;-28
2021/05/26 04:07:59;;;;;;;;;;;;;;;20.94;54.75;100775.28;2105150;28;4125;-28
2021/05/26 04:09:01;;;;;;;;;;;;;;;20.94;54.83;100775.28;2104691;28;4036;-32
2021/05/26 04:10:02;;;;;;;;;;;;;;;20.95;54.77;100776.94;2104328;28;4031;-33
2021/05/26 04:11:03;;;;;;;;;;;;;;;20.95;54.76;100778.94;2105059;28;4034;-32
2021/05/26 04:12:04;;;;;;;;;;;;;;;20.95;54.87;100764.72;2104845;28;4069;-31
2021/05/26 04:13:06;;;;;;;;;;;;;;;20.94;54.73;100766.75;2105142;28;4113;-28
2021/05/26 04:14:07;;;;;;;;;;;;;;;20.95;54.66;100776.94;2104038;28;3901;-28
2021/05/26 04:15:08;;;;;;;;;;;;;;;20.94;54.94;100766.75;2103813;28;3861;-30
2021/05/26 04:16:09;;;;;;;;;;;;;;;20.95;54.75;100771.25;2103122;28;3866;-30
2021/05/26 04:17:11;;;;;;;;;;;;;;;20.94;54.83;100769.59;2102800;28;4317;-32
2021/05/26 04:18:12;;;;;;;;;;;;;;;20.94;54.63;100769.59;2103640;28;3875;-31
2021/05/26 04:19:13;;;;;;;;;;;;;;;20.94;54.68;100772.44;2105626;28;4019;-32
2021/05/26 04:20:14;;;;;;;;;;;;;;;20.95;54.64;100770.41;2104941;28;3887;-31
2021/05/26 04:21:15;;;;;;;;;;;;;;;20.94;54.60;100763.91;2104232;28;4096;-32
2021/05/26 04:22:17;;;;;;;;;;;;;;;20.95;54.56;100770.41;2104723;28;3877;-35
2021/05/26 04:23:18;;;;;;;;;;;;;;;20.94;54.50;100760.22;2104311;28;4066;-32
2021/05/26 04:24:19;;;;;;;;;;;;;;;20.94;54.41;100758.22;2104447;28;3892;-35
2021/05/26 04:25:21;;;;;;;;;;;;;;;20.94;54.50;100761.06;2104028;28;3877;-30
2021/05/26 04:26:22;;;;;;;;;;;;;;;20.94;54.51;100766.75;2104459;28;3994;-35
2021/05/26 04:27:23;;;;;;;;;;;;;;;20.93;54.41;100759.41;2103410;28;4194;-32
2021/05/26 04:28:25;;;;;;;;;;;;;;;20.94;54.53;100765.91;2105477;28;3881;-32
2021/05/26 04:29:26;;;;;;;;;;;;;;;20.94;54.55;100765.91;2104195;28;4065;-32
2021/05/26 04:30:27;;;;;;;;;;;;;;;20.94;54.35;100761.06;2106016;28;4000;-33
2021/05/26 04:31:28;;;;;;;;;;;;;;;20.94;54.52;100763.06;2104146;28;3848;-33
2021/05/26 04:32:30;;;;;;;;;;;;;;;20.94;54.37;100763.06;2102874;28;4034;-32
2021/05/26 04:33:31;;;;;;;;;;;;;;;20.94;54.52;100763.06;2104518;28;4012;-33
2021/05/26 04:34:32;;;;;;;;;;;;;;;20.94;54.45;100763.06;2104546;28;4840;-35
2021/05/26 04:35:33;;;;;;;;;;;;;;;20.93;54.35;100762.25;2105079;28;3904;-33
2021/05/26 04:36:35;;;;;;;;;;;;;;;20.94;54.32;100765.91;2105398;28;4100;-33
2021/05/26 04:37:36;;;;;;;;;;;;;;;20.94;54.33;100765.91;2103830;28;4040;-32
2021/05/26 04:38:37;;;;;;;;;;;;;;;20.94;54.25;100768.75;2104098;28;4130;-35
2021/05/26 04:39:38;;;;;;;;;;;;;;;20.92;54.27;100766.25;2105756;28;4012;-34
2021/05/26 04:40:39;;;;;;;;;;;;;;;20.94;54.20;100763.06;2103987;28;3909;-35
2021/05/26 04:41:41;;;;;;;;;;;;;;;20.93;54.25;100762.25;2104641;28;4155;-33
2021/05/26 04:42:42;;;;;;;;;;;;;;;20.94;54.25;100757.38;2103653;28;4053;-31
2021/05/26 04:43:43;;;;;;;;;;;;;;;20.93;54.44;100753.72;2105155;28;4177;-35
2021/05/26 04:44:44;;;;;;;;;;;;;;;20.94;54.33;100768.75;2103457;28;3862;-31
2021/05/26 04:45:45;;;;;;;;;;;;;;;20.93;54.22;100761.44;2104354;28;4038;-34
2021/05/26 04:46:47;;;;;;;;;;;;;;;20.93;54.23;100759.41;2104347;28;4072;-34
2021/05/26 04:47:48;;;;;;;;;;;;;;;20.93;54.38;100762.25;2103379;28;4025;-34
2021/05/26 04:48:49;;;;;;;;;;;;;;;20.93;54.29;100755.75;2103991;28;4082;-31
2021/05/26 04:49:50;;;;;;;;;;;;;;;20.93;54.21;100758.59;2104585;28;3904;-35
2021/05/26 04:50:51;;;;;;;;;;;;;;;20.93;54.26;100761.44;2104896;28;4053;-34
2021/05/26 04:51:53;;;;;;;;;;;;;;;20.93;54.23;100752.91;2103661;28;4104;-36
2021/05/26 04:52:54;;;;;;;;;;;;;;;20.92;54.29;100749.19;2105117;28;4067;-34
2021/05/26 04:53:56;;;;;;;;;;;;;;;20.92;54.37;100754.88;2103277;28;4027;-32
2021/05/26 04:54:57;;;;;;;;;;;;;;;20.93;54.33;100758.59;2104384;28;4081;-33
2021/05/26 04:55:58;;;;;;;;;;;;;;;20.93;54.37;100761.44;2102215;28;4009;-33
2021/05/26 04:56:59;;;;;;;;;;;;;;;20.93;54.22;100759.41;2102712;28;4047;-34
2021/05/26 04:58:01;;;;;;;;;;;;;;;20.93;54.44;100761.44;2104427;28;4031;-35
2021/05/26 04:59:02;;;;;;;;;;;;;;;20.93;54.54;100761.44;2105117;28;4111;-33
2021/05/26 05:00:03;;;;;;;;;;;;;;;20.93;54.47;100759.41;2104284;28;3966;-34
2021/05/26 05:01:04;;;;;;;;;;;;;;;20.93;54.48;100767.94;2103633;28;4078;-32
2021/05/26 05:02:06;;;;;;;;;;;;;;;20.93;54.48;100761.44;2105365;28;4002;-31
2021/05/26 05:03:07;;;;;;;;;;;;;;;20.93;54.64;100756.56;2105536;28;4273;-31
2021/05/26 05:04:08;;;;;;;;;;;;;;;20.94;54.43;100757.38;2104328;28;3860;-31
2021/05/26 05:05:09;;;;;;;;;;;;;;;20.93;54.50;100755.75;2102859;28;4025;-31
2021/05/26 05:06:12;;;;;;;;;;;;;;;20.93;54.56;100759.41;2104132;28;3854;-31
2021/05/26 05:07:13;;;;;;;;;;;;;;;20.94;54.54;100763.06;2103630;28;4007;-36
2021/05/26 05:08:14;;;;;;;;;;;;;;;20.93;54.51;100759.41;2104167;28;3875;-36
2021/05/26 05:09:15;;;;;;;;;;;;;;;20.93;54.67;100761.44;2103263;28;4244;-33
2021/05/26 05:10:17;;;;;;;;;;;;;;;20.93;54.61;100772.81;2101601;28;4143;-34
2021/05/26 05:11:18;;;;;;;;;;;;;;;20.93;54.77;100761.44;2103936;28;4043;-32
2021/05/26 05:12:19;;;;;;;;;;;;;;;20.93;54.71;100756.56;2103829;28;4016;-32
2021/05/26 05:13:20;;;;;;;;;;;;;;;20.94;54.61;100768.75;2102958;28;3885;-32
2021/05/26 05:14:22;;;;;;;;;;;;;;;20.93;54.69;100764.28;2102408;28;3994;-31
2021/05/26 05:15:23;;;;;;;;;;;;;;;20.93;54.75;100761.44;2102282;28;4029;-31
2021/05/26 05:16:24;;;;;;;;;;;;;;;20.91;54.68;100756.91;2104105;28;3880;-34
2021/05/26 05:17:25;;;;;;;;;;;;;;;20.92;54.76;100757.72;2103718;28;3899;-36
2021/05/26 05:18:27;;;;;;;;;;;;;;;20.92;54.75;100760.56;2104129;28;3826;-33
2021/05/26 05:19:28;;;;;;;;;;;;;;;20.93;54.70;100761.44;2104976;28;4235;-33
2021/05/26 05:20:29;;;;;;;;;;;;;;;20.91;54.74;100761.75;2104558;28;3940;-33
2021/05/26 05:21:30;;;;;;;;;;;;;;;20.91;54.66;100759.75;2095007;28;4031;-35